Decoded Metar for KCGE (CAMBRIDGE-DORCH in MD, USA) (IATA:CGE) | Meteo·Mobile Aviation Weather
aviador You're here:

KCGE Decoded Metar

CAMBRIDGE-DORCH in MD, USA
Report Time2019-09-23 09:20:00
UTC Time2019-09-23 09:42:26
Flight Rules vfr VFR
Wind160° at 04 kt
W.Decomp.*RWY 16: 3.9 kt HW 0.7 kt RCW
Visibility9999 m
Phenomena:N/A
Clouds:N/A
Expected CloudBase > 800 ft AGL from Temp-Dew spread
CeilingNone
Temp21°C (ISA +6)
Dew Point19°C (88% RH)
QNH1015 hPa
Density Alt948 ft
Elevation20 ft
Report Wrong Elevation
Raw Report
KCGE 230920Z AUTO 16004KT 10SM CLR 21/19 A2998 RMK A01=

Extra information for KCGE:More info

Metar Taf Metar & Taf Last 4 Metars F.Rules Stats Wind Profile Meteogram Temp Stats Airport Information Weather charts Add Link Nearby VenuesMetar ALERT Operation Metar Decoded Social comments

AIRNAV info for KCGE